KACT

Waco Regional Airport

Waco, Texas, USA
KACT 232050Z 2321/2418 34012KT P6SM FEW250 FM240200 36006KT P6SM FEW250 FM241700 04006KT P6SM FEW250
Issued Valid From Valid To
Apr-23 @ 20:50 UTC
(2 hours ago)
Apr-23 @ 21:00 UTC
(2 hours ago)
Apr-24 @ 18:00 UTC
(in 19 hours)
Apr-23 @ 21:00 to Apr-24 @ 02:00
KACT 232050Z 2321/2418 34012KT P6SM FEW250
Wind Visibility Clouds
340° at 12 knots Greater than 6 miles
  • Few at 25,000' AGL
From Apr-24 @ 02:00 to Apr-24 @ 17:00
FM240200 36006KT P6SM FEW250
Wind Visibility Clouds
360° at 6 knots Greater than 6 miles
  • Few at 25,000' AGL
From Apr-24 @ 17:00 to Apr-24 @ 18:00
FM241700 04006KT P6SM FEW250
Wind Visibility Clouds
40° at 6 knots Greater than 6 miles
  • Few at 25,000' AGL
KACT 232050Z 2321/2418 34012KT P6SM FEW250 FM240200 36006KT P6SM FEW250 FM241700 04006KT P6SM FEW250
Issued Apr-23 @ 20:50 UTC
(2 hours ago)
Valid From Apr-23 @ 21:00 UTC
(2 hours ago)
Valid To Apr-24 @ 18:00 UTC
(in 19 hours)
Apr-23 @ 21:00 - Apr-24 @ 02:00
Wind Visibility
340° at 12 knots Greater than 6 miles
Clouds
  • Few at 25,000' AGL
From Apr-24 @ 02:00 - Apr-24 @ 17:00
Wind Visibility
360° at 6 knots Greater than 6 miles
Clouds
  • Few at 25,000' AGL
From Apr-24 @ 17:00 - Apr-24 @ 18:00
Wind Visibility
40° at 6 knots Greater than 6 miles
Clouds
  • Few at 25,000' AGL